sensor_id;sensor_type;location;lat;lon;timestamp;P1;durP1;ratioP1;P2;durP2;ratioP2
38653;SDS011;24413;52.450;20.706;2022-12-07T00:02:07;138.53;;;66.60;;
38653;SDS011;24413;52.450;20.706;2022-12-07T00:04:32;136.80;;;63.37;;
38653;SDS011;24413;52.450;20.706;2022-12-07T00:06:58;115.70;;;55.20;;
38653;SDS011;24413;52.450;20.706;2022-12-07T00:09:23;99.88;;;48.58;;
38653;SDS011;24413;52.450;20.706;2022-12-07T00:11:49;89.63;;;46.25;;
38653;SDS011;24413;52.450;20.706;2022-12-07T00:14:15;87.22;;;44.78;;
38653;SDS011;24413;52.450;20.706;2022-12-07T00:16:41;88.20;;;49.15;;
38653;SDS011;24413;52.450;20.706;2022-12-07T00:19:06;77.57;;;43.13;;
38653;SDS011;24413;52.450;20.706;2022-12-07T00:21:32;78.82;;;46.08;;
38653;SDS011;24413;52.450;20.706;2022-12-07T00:23:58;71.07;;;40.45;;
38653;SDS011;24413;52.450;20.706;2022-12-07T00:28:50;97.80;;;47.57;;
38653;SDS011;24413;52.450;20.706;2022-12-07T00:31:16;79.72;;;41.30;;
38653;SDS011;24413;52.450;20.706;2022-12-07T00:33:42;65.93;;;33.33;;
38653;SDS011;24413;52.450;20.706;2022-12-07T00:36:08;77.20;;;32.00;;
38653;SDS011;24413;52.450;20.706;2022-12-07T00:38:34;63.92;;;27.40;;
38653;SDS011;24413;52.450;20.706;2022-12-07T00:41:04;92.57;;;32.85;;
38653;SDS011;24413;52.450;20.706;2022-12-07T00:43:29;57.08;;;30.42;;
38653;SDS011;24413;52.450;20.706;2022-12-07T00:45:55;71.97;;;29.85;;
38653;SDS011;24413;52.450;20.706;2022-12-07T00:48:21;98.75;;;32.38;;
38653;SDS011;24413;52.450;20.706;2022-12-07T00:50:46;67.28;;;31.88;;
38653;SDS011;24413;52.450;20.706;2022-12-07T00:53:11;53.55;;;31.75;;
38653;SDS011;24413;52.450;20.706;2022-12-07T00:55:36;51.55;;;29.23;;
38653;SDS011;24413;52.450;20.706;2022-12-07T00:58:02;54.22;;;29.02;;
38653;SDS011;24413;52.450;20.706;2022-12-07T01:00:27;49.80;;;28.77;;
38653;SDS011;24413;52.450;20.706;2022-12-07T01:02:53;54.33;;;28.42;;
38653;SDS011;24413;52.450;20.706;2022-12-07T01:05:18;47.13;;;28.00;;
38653;SDS011;24413;52.450;20.706;2022-12-07T01:07:43;49.13;;;28.73;;
38653;SDS011;24413;52.450;20.706;2022-12-07T01:10:09;58.10;;;33.10;;
38653;SDS011;24413;52.450;20.706;2022-12-07T01:12:34;53.10;;;32.70;;
38653;SDS011;24413;52.450;20.706;2022-12-07T01:14:59;55.05;;;32.00;;
38653;SDS011;24413;52.450;20.706;2022-12-07T01:17:24;59.70;;;32.77;;
38653;SDS011;24413;52.450;20.706;2022-12-07T01:19:50;62.83;;;34.30;;
38653;SDS011;24413;52.450;20.706;2022-12-07T01:22:15;53.28;;;30.55;;
38653;SDS011;24413;52.450;20.706;2022-12-07T01:24:41;54.78;;;28.85;;
38653;SDS011;24413;52.450;20.706;2022-12-07T01:27:07;57.23;;;31.70;;
38653;SDS011;24413;52.450;20.706;2022-12-07T01:29:32;61.03;;;31.30;;
38653;SDS011;24413;52.450;20.706;2022-12-07T01:31:57;65.13;;;35.30;;
38653;SDS011;24413;52.450;20.706;2022-12-07T01:34:22;54.58;;;32.15;;
38653;SDS011;24413;52.450;20.706;2022-12-07T01:36:47;54.23;;;31.10;;
38653;SDS011;24413;52.450;20.706;2022-12-07T01:39:13;51.95;;;29.83;;
38653;SDS011;24413;52.450;20.706;2022-12-07T01:41:39;45.78;;;29.85;;
38653;SDS011;24413;52.450;20.706;2022-12-07T01:47:01;51.17;;;31.83;;
38653;SDS011;24413;52.450;20.706;2022-12-07T01:51:53;44.72;;;25.90;;
38653;SDS011;24413;52.450;20.706;2022-12-07T01:54:19;42.05;;;26.15;;
38653;SDS011;24413;52.450;20.706;2022-12-07T01:56:47;44.20;;;25.67;;
38653;SDS011;24413;52.450;20.706;2022-12-07T01:59:13;43.70;;;24.60;;
38653;SDS011;24413;52.450;20.706;2022-12-07T02:01:38;44.30;;;24.27;;
38653;SDS011;24413;52.450;20.706;2022-12-07T02:04:04;39.72;;;23.48;;
38653;SDS011;24413;52.450;20.706;2022-12-07T02:06:29;38.80;;;23.30;;
38653;SDS011;24413;52.450;20.706;2022-12-07T02:08:55;37.25;;;23.63;;
38653;SDS011;24413;52.450;20.706;2022-12-07T02:11:20;39.95;;;24.90;;
38653;SDS011;24413;52.450;20.706;2022-12-07T02:13:46;34.17;;;21.00;;
38653;SDS011;24413;52.450;20.706;2022-12-07T02:29:01;29.93;;;16.50;;
38653;SDS011;24413;52.450;20.706;2022-12-07T02:31:29;28.20;;;16.52;;
38653;SDS011;24413;52.450;20.706;2022-12-07T02:34:09;35.05;;;17.48;;
38653;SDS011;24413;52.450;20.706;2022-12-07T02:36:42;26.58;;;16.00;;
38653;SDS011;24413;52.450;20.706;2022-12-07T02:39:14;21.23;;;14.05;;
38653;SDS011;24413;52.450;20.706;2022-12-07T02:41:43;22.77;;;13.65;;
38653;SDS011;24413;52.450;20.706;2022-12-07T02:44:10;25.40;;;15.13;;
38653;SDS011;24413;52.450;20.706;2022-12-07T02:46:41;22.80;;;14.50;;
38653;SDS011;24413;52.450;20.706;2022-12-07T02:49:07;22.60;;;13.70;;
38653;SDS011;24413;52.450;20.706;2022-12-07T02:51:33;19.77;;;15.13;;
38653;SDS011;24413;52.450;20.706;2022-12-07T02:53:59;19.83;;;14.13;;
38653;SDS011;24413;52.450;20.706;2022-12-07T02:56:34;21.20;;;14.50;;
38653;SDS011;24413;52.450;20.706;2022-12-07T03:07:02;23.58;;;16.60;;
38653;SDS011;24413;52.450;20.706;2022-12-07T03:09:36;27.25;;;17.17;;
38653;SDS011;24413;52.450;20.706;2022-12-07T03:12:09;22.02;;;17.63;;
38653;SDS011;24413;52.450;20.706;2022-12-07T03:14:40;25.63;;;18.35;;
38653;SDS011;24413;52.450;20.706;2022-12-07T03:17:10;25.73;;;17.10;;
38653;SDS011;24413;52.450;20.706;2022-12-07T03:19:37;27.92;;;18.75;;
38653;SDS011;24413;52.450;20.706;2022-12-07T03:22:05;26.83;;;19.48;;
38653;SDS011;24413;52.450;20.706;2022-12-07T03:24:42;27.85;;;17.88;;
38653;SDS011;24413;52.450;20.706;2022-12-07T03:27:09;22.88;;;15.48;;
38653;SDS011;24413;52.450;20.706;2022-12-07T03:29:38;29.25;;;17.45;;
38653;SDS011;24413;52.450;20.706;2022-12-07T03:32:07;29.55;;;18.75;;
38653;SDS011;24413;52.450;20.706;2022-12-07T03:34:39;29.13;;;18.52;;
38653;SDS011;24413;52.450;20.706;2022-12-07T03:37:07;31.45;;;19.40;;
38653;SDS011;24413;52.450;20.706;2022-12-07T03:39:34;38.97;;;24.23;;
38653;SDS011;24413;52.450;20.706;2022-12-07T03:42:02;41.63;;;26.83;;
38653;SDS011;24413;52.450;20.706;2022-12-07T03:44:29;33.10;;;23.35;;
38653;SDS011;24413;52.450;20.706;2022-12-07T03:46:59;31.77;;;20.92;;
38653;SDS011;24413;52.450;20.706;2022-12-07T03:54:33;28.58;;;20.52;;
38653;SDS011;24413;52.450;20.706;2022-12-07T03:57:01;31.73;;;20.73;;
38653;SDS011;24413;52.450;20.706;2022-12-07T03:59:26;28.33;;;19.70;;
38653;SDS011;24413;52.450;20.706;2022-12-07T04:01:53;37.33;;;22.33;;
38653;SDS011;24413;52.450;20.706;2022-12-07T04:04:19;34.63;;;21.25;;
38653;SDS011;24413;52.450;20.706;2022-12-07T04:06:44;28.77;;;18.48;;
38653;SDS011;24413;52.450;20.706;2022-12-07T04:09:10;28.10;;;15.95;;
38653;SDS011;24413;52.450;20.706;2022-12-07T04:11:35;26.33;;;16.67;;
38653;SDS011;24413;52.450;20.706;2022-12-07T04:14:00;27.00;;;17.20;;
38653;SDS011;24413;52.450;20.706;2022-12-07T04:16:50;27.65;;;17.00;;
38653;SDS011;24413;52.450;20.706;2022-12-07T04:19:16;21.50;;;14.85;;
38653;SDS011;24413;52.450;20.706;2022-12-07T04:21:41;21.45;;;14.68;;
38653;SDS011;24413;52.450;20.706;2022-12-07T04:24:07;31.30;;;18.33;;
38653;SDS011;24413;52.450;20.706;2022-12-07T04:26:32;31.23;;;20.58;;
38653;SDS011;24413;52.450;20.706;2022-12-07T04:28:57;31.75;;;18.77;;
38653;SDS011;24413;52.450;20.706;2022-12-07T04:31:22;37.83;;;20.20;;
38653;SDS011;24413;52.450;20.706;2022-12-07T04:33:47;34.27;;;18.63;;
38653;SDS011;24413;52.450;20.706;2022-12-07T04:36:13;32.47;;;17.75;;
38653;SDS011;24413;52.450;20.706;2022-12-07T04:38:38;27.10;;;18.60;;
38653;SDS011;24413;52.450;20.706;2022-12-07T04:41:07;27.33;;;18.80;;
38653;SDS011;24413;52.450;20.706;2022-12-07T04:43:33;34.22;;;21.65;;
38653;SDS011;24413;52.450;20.706;2022-12-07T04:45:58;30.90;;;18.23;;
38653;SDS011;24413;52.450;20.706;2022-12-07T04:48:23;30.30;;;17.42;;
38653;SDS011;24413;52.450;20.706;2022-12-07T04:50:48;26.55;;;17.30;;
38653;SDS011;24413;52.450;20.706;2022-12-07T04:53:17;24.98;;;17.10;;
38653;SDS011;24413;52.450;20.706;2022-12-07T04:55:42;22.48;;;14.63;;
38653;SDS011;24413;52.450;20.706;2022-12-07T04:58:08;24.00;;;15.93;;
38653;SDS011;24413;52.450;20.706;2022-12-07T05:00:33;24.53;;;16.07;;
38653;SDS011;24413;52.450;20.706;2022-12-07T05:02:58;24.60;;;17.17;;
38653;SDS011;24413;52.450;20.706;2022-12-07T05:05:24;25.63;;;17.63;;
38653;SDS011;24413;52.450;20.706;2022-12-07T05:07:49;23.52;;;17.58;;
38653;SDS011;24413;52.450;20.706;2022-12-07T05:10:15;30.98;;;16.65;;
38653;SDS011;24413;52.450;20.706;2022-12-07T05:12:40;20.48;;;14.40;;
38653;SDS011;24413;52.450;20.706;2022-12-07T05:15:05;21.20;;;13.83;;
38653;SDS011;24413;52.450;20.706;2022-12-07T05:17:30;21.42;;;14.20;;
38653;SDS011;24413;52.450;20.706;2022-12-07T05:19:56;20.50;;;14.82;;
38653;SDS011;24413;52.450;20.706;2022-12-07T05:22:21;23.70;;;15.73;;
38653;SDS011;24413;52.450;20.706;2022-12-07T05:24:46;22.77;;;14.95;;
38653;SDS011;24413;52.450;20.706;2022-12-07T05:27:11;22.77;;;16.07;;
38653;SDS011;24413;52.450;20.706;2022-12-07T05:29:36;24.83;;;16.05;;
38653;SDS011;24413;52.450;20.706;2022-12-07T05:32:02;24.77;;;17.13;;
38653;SDS011;24413;52.450;20.706;2022-12-07T05:34:27;24.38;;;15.93;;
38653;SDS011;24413;52.450;20.706;2022-12-07T05:36:52;21.73;;;15.52;;
38653;SDS011;24413;52.450;20.706;2022-12-07T05:39:17;24.47;;;15.90;;
38653;SDS011;24413;52.450;20.706;2022-12-07T05:41:43;23.08;;;14.68;;
38653;SDS011;24413;52.450;20.706;2022-12-07T05:44:27;18.17;;;14.07;;
38653;SDS011;24413;52.450;20.706;2022-12-07T05:46:52;17.27;;;13.30;;
38653;SDS011;24413;52.450;20.706;2022-12-07T05:49:17;31.57;;;16.07;;
38653;SDS011;24413;52.450;20.706;2022-12-07T05:51:42;31.00;;;16.93;;
38653;SDS011;24413;52.450;20.706;2022-12-07T05:54:07;25.23;;;15.32;;
38653;SDS011;24413;52.450;20.706;2022-12-07T05:56:33;22.38;;;15.27;;
38653;SDS011;24413;52.450;20.706;2022-12-07T05:58:58;21.17;;;13.73;;
38653;SDS011;24413;52.450;20.706;2022-12-07T06:01:42;22.50;;;14.82;;
38653;SDS011;24413;52.450;20.706;2022-12-07T06:04:07;25.48;;;16.67;;
38653;SDS011;24413;52.450;20.706;2022-12-07T06:06:32;24.77;;;16.45;;
38653;SDS011;24413;52.450;20.706;2022-12-07T06:08:57;21.48;;;14.98;;
38653;SDS011;24413;52.450;20.706;2022-12-07T06:11:23;26.50;;;17.42;;
38653;SDS011;24413;52.450;20.706;2022-12-07T06:14:06;26.90;;;18.20;;
38653;SDS011;24413;52.450;20.706;2022-12-07T06:16:32;30.47;;;21.00;;
38653;SDS011;24413;52.450;20.706;2022-12-07T06:18:57;30.85;;;20.90;;
38653;SDS011;24413;52.450;20.706;2022-12-07T06:21:22;31.38;;;19.58;;
38653;SDS011;24413;52.450;20.706;2022-12-07T06:23:47;43.03;;;24.30;;
38653;SDS011;24413;52.450;20.706;2022-12-07T06:26:13;39.15;;;23.80;;
38653;SDS011;24413;52.450;20.706;2022-12-07T06:28:38;37.85;;;20.92;;
38653;SDS011;24413;52.450;20.706;2022-12-07T06:31:03;35.38;;;21.52;;
38653;SDS011;24413;52.450;20.706;2022-12-07T06:33:29;34.40;;;20.38;;
38653;SDS011;24413;52.450;20.706;2022-12-07T06:35:54;37.63;;;21.85;;
38653;SDS011;24413;52.450;20.706;2022-12-07T06:38:19;31.50;;;20.05;;
38653;SDS011;24413;52.450;20.706;2022-12-07T06:40:44;44.92;;;24.42;;
38653;SDS011;24413;52.450;20.706;2022-12-07T06:43:10;41.57;;;24.27;;
38653;SDS011;24413;52.450;20.706;2022-12-07T06:45:35;43.63;;;25.43;;
38653;SDS011;24413;52.450;20.706;2022-12-07T06:48:00;39.63;;;23.37;;
38653;SDS011;24413;52.450;20.706;2022-12-07T06:50:25;33.38;;;21.83;;
38653;SDS011;24413;52.450;20.706;2022-12-07T06:52:51;37.00;;;22.92;;
38653;SDS011;24413;52.450;20.706;2022-12-07T06:55:16;35.63;;;22.10;;
38653;SDS011;24413;52.450;20.706;2022-12-07T06:57:41;39.85;;;22.33;;
38653;SDS011;24413;52.450;20.706;2022-12-07T07:00:06;34.00;;;21.58;;
38653;SDS011;24413;52.450;20.706;2022-12-07T07:02:32;37.80;;;23.25;;
38653;SDS011;24413;52.450;20.706;2022-12-07T07:04:57;40.15;;;23.48;;
38653;SDS011;24413;52.450;20.706;2022-12-07T07:07:22;34.37;;;22.47;;
38653;SDS011;24413;52.450;20.706;2022-12-07T07:09:48;31.63;;;21.45;;
38653;SDS011;24413;52.450;20.706;2022-12-07T07:12:13;33.93;;;19.27;;
38653;SDS011;24413;52.450;20.706;2022-12-07T07:14:38;37.23;;;22.57;;
38653;SDS011;24413;52.450;20.706;2022-12-07T07:17:03;29.95;;;19.58;;
38653;SDS011;24413;52.450;20.706;2022-12-07T07:19:28;32.00;;;19.65;;
38653;SDS011;24413;52.450;20.706;2022-12-07T07:21:54;91.97;;;45.03;;
38653;SDS011;24413;52.450;20.706;2022-12-07T07:24:19;47.07;;;28.57;;
38653;SDS011;24413;52.450;20.706;2022-12-07T07:26:44;39.20;;;23.55;;
38653;SDS011;24413;52.450;20.706;2022-12-07T07:29:09;54.30;;;28.53;;
38653;SDS011;24413;52.450;20.706;2022-12-07T07:31:35;64.07;;;42.10;;
38653;SDS011;24413;52.450;20.706;2022-12-07T07:34:00;40.03;;;20.92;;
38653;SDS011;24413;52.450;20.706;2022-12-07T07:36:26;42.95;;;24.20;;
38653;SDS011;24413;52.450;20.706;2022-12-07T07:38:51;43.83;;;25.57;;
38653;SDS011;24413;52.450;20.706;2022-12-07T07:41:16;53.13;;;35.73;;
38653;SDS011;24413;52.450;20.706;2022-12-07T07:43:41;65.70;;;43.10;;
38653;SDS011;24413;52.450;20.706;2022-12-07T07:46:06;54.77;;;36.67;;
38653;SDS011;24413;52.450;20.706;2022-12-07T07:48:32;62.53;;;41.50;;
38653;SDS011;24413;52.450;20.706;2022-12-07T07:50:57;54.10;;;36.50;;
38653;SDS011;24413;52.450;20.706;2022-12-07T07:53:22;67.75;;;43.70;;
38653;SDS011;24413;52.450;20.706;2022-12-07T07:55:51;60.55;;;41.15;;
38653;SDS011;24413;52.450;20.706;2022-12-07T07:58:17;48.15;;;33.47;;
38653;SDS011;24413;52.450;20.706;2022-12-07T08:00:42;63.30;;;40.17;;
38653;SDS011;24413;52.450;20.706;2022-12-07T08:03:07;53.13;;;29.30;;
38653;SDS011;24413;52.450;20.706;2022-12-07T08:05:32;48.60;;;32.40;;
38653;SDS011;24413;52.450;20.706;2022-12-07T08:07:57;63.75;;;40.38;;
38653;SDS011;24413;52.450;20.706;2022-12-07T08:10:23;47.75;;;28.00;;
38653;SDS011;24413;52.450;20.706;2022-12-07T08:12:48;46.80;;;28.33;;
38653;SDS011;24413;52.450;20.706;2022-12-07T08:15:33;46.72;;;27.95;;
38653;SDS011;24413;52.450;20.706;2022-12-07T08:18:01;50.95;;;31.63;;
38653;SDS011;24413;52.450;20.706;2022-12-07T08:20:26;73.30;;;49.77;;
38653;SDS011;24413;52.450;20.706;2022-12-07T08:22:51;77.28;;;44.40;;
38653;SDS011;24413;52.450;20.706;2022-12-07T08:25:16;145.88;;;90.82;;
38653;SDS011;24413;52.450;20.706;2022-12-07T08:27:42;83.40;;;53.78;;
38653;SDS011;24413;52.450;20.706;2022-12-07T08:30:07;79.70;;;45.58;;
38653;SDS011;24413;52.450;20.706;2022-12-07T08:32:33;336.00;;;147.48;;
38653;SDS011;24413;52.450;20.706;2022-12-07T08:34:58;196.52;;;102.45;;
38653;SDS011;24413;52.450;20.706;2022-12-07T08:37:23;154.40;;;100.30;;
38653;SDS011;24413;52.450;20.706;2022-12-07T08:39:48;175.53;;;108.17;;
38653;SDS011;24413;52.450;20.706;2022-12-07T08:42:14;146.63;;;89.88;;
38653;SDS011;24413;52.450;20.706;2022-12-07T08:44:39;203.47;;;126.10;;
38653;SDS011;24413;52.450;20.706;2022-12-07T08:47:05;135.95;;;91.20;;
38653;SDS011;24413;52.450;20.706;2022-12-07T08:49:33;70.68;;;41.55;;
38653;SDS011;24413;52.450;20.706;2022-12-07T08:51:59;139.77;;;92.38;;
38653;SDS011;24413;52.450;20.706;2022-12-07T08:54:24;108.45;;;76.72;;
38653;SDS011;24413;52.450;20.706;2022-12-07T08:56:50;118.47;;;79.40;;
38653;SDS011;24413;52.450;20.706;2022-12-07T08:59:17;100.75;;;59.53;;
38653;SDS011;24413;52.450;20.706;2022-12-07T09:01:42;78.68;;;39.80;;
38653;SDS011;24413;52.450;20.706;2022-12-07T09:04:08;54.35;;;31.33;;
38653;SDS011;24413;52.450;20.706;2022-12-07T09:06:33;49.17;;;26.48;;
38653;SDS011;24413;52.450;20.706;2022-12-07T09:08:59;48.97;;;27.73;;
38653;SDS011;24413;52.450;20.706;2022-12-07T09:11:26;46.30;;;26.70;;
38653;SDS011;24413;52.450;20.706;2022-12-07T09:13:51;35.30;;;21.95;;
38653;SDS011;24413;52.450;20.706;2022-12-07T09:16:16;36.88;;;22.40;;
38653;SDS011;24413;52.450;20.706;2022-12-07T09:18:41;36.13;;;22.67;;
38653;SDS011;24413;52.450;20.706;2022-12-07T09:21:07;32.97;;;21.88;;
38653;SDS011;24413;52.450;20.706;2022-12-07T09:23:32;43.35;;;22.95;;
38653;SDS011;24413;52.450;20.706;2022-12-07T09:26:01;59.90;;;29.05;;
38653;SDS011;24413;52.450;20.706;2022-12-07T09:28:26;42.97;;;22.98;;
38653;SDS011;24413;52.450;20.706;2022-12-07T09:30:51;37.17;;;18.80;;
38653;SDS011;24413;52.450;20.706;2022-12-07T09:33:16;34.13;;;17.08;;
38653;SDS011;24413;52.450;20.706;2022-12-07T09:35:45;32.13;;;17.83;;
38653;SDS011;24413;52.450;20.706;2022-12-07T09:38:11;29.75;;;15.88;;
38653;SDS011;24413;52.450;20.706;2022-12-07T09:40:36;35.40;;;20.13;;
38653;SDS011;24413;52.450;20.706;2022-12-07T09:43:01;30.38;;;16.63;;
38653;SDS011;24413;52.450;20.706;2022-12-07T09:45:30;54.03;;;25.88;;
38653;SDS011;24413;52.450;20.706;2022-12-07T09:47:57;32.40;;;17.08;;
38653;SDS011;24413;52.450;20.706;2022-12-07T09:50:23;33.65;;;17.50;;
38653;SDS011;24413;52.450;20.706;2022-12-07T09:52:49;40.28;;;21.35;;
38653;SDS011;24413;52.450;20.706;2022-12-07T09:55:16;38.85;;;19.38;;
38653;SDS011;24413;52.450;20.706;2022-12-07T09:57:44;37.50;;;17.70;;
38653;SDS011;24413;52.450;20.706;2022-12-07T10:00:11;42.97;;;19.98;;
38653;SDS011;24413;52.450;20.706;2022-12-07T10:05:03;31.73;;;17.92;;
38653;SDS011;24413;52.450;20.706;2022-12-07T10:07:29;34.85;;;15.80;;
38653;SDS011;24413;52.450;20.706;2022-12-07T10:09:54;29.95;;;13.82;;
38653;SDS011;24413;52.450;20.706;2022-12-07T10:12:19;30.77;;;15.20;;
38653;SDS011;24413;52.450;20.706;2022-12-07T10:14:55;33.97;;;17.25;;
38653;SDS011;24413;52.450;20.706;2022-12-07T10:19:51;28.30;;;16.90;;
38653;SDS011;24413;52.450;20.706;2022-12-07T10:22:16;44.13;;;20.77;;
38653;SDS011;24413;52.450;20.706;2022-12-07T10:24:42;36.28;;;18.17;;
38653;SDS011;24413;52.450;20.706;2022-12-07T10:27:21;96.63;;;49.83;;
38653;SDS011;24413;52.450;20.706;2022-12-07T10:29:47;47.63;;;27.10;;
38653;SDS011;24413;52.450;20.706;2022-12-07T10:34:38;61.07;;;34.17;;
38653;SDS011;24413;52.450;20.706;2022-12-07T10:37:21;81.77;;;45.00;;
38653;SDS011;24413;52.450;20.706;2022-12-07T10:39:55;84.13;;;50.42;;
38653;SDS011;24413;52.450;20.706;2022-12-07T10:42:38;106.65;;;70.57;;
38653;SDS011;24413;52.450;20.706;2022-12-07T11:00:19;26.65;;;17.05;;
38653;SDS011;24413;52.450;20.706;2022-12-07T11:02:52;24.08;;;15.10;;
38653;SDS011;24413;52.450;20.706;2022-12-07T11:05:27;34.03;;;19.00;;
38653;SDS011;24413;52.450;20.706;2022-12-07T11:10:46;45.22;;;26.98;;
38653;SDS011;24413;52.450;20.706;2022-12-07T11:13:22;32.03;;;18.60;;
38653;SDS011;24413;52.450;20.706;2022-12-07T11:18:27;35.47;;;21.10;;
38653;SDS011;24413;52.450;20.706;2022-12-07T11:21:07;37.50;;;21.25;;
38653;SDS011;24413;52.450;20.706;2022-12-07T11:26:02;24.87;;;16.07;;
38653;SDS011;24413;52.450;20.706;2022-12-07T11:33:37;41.08;;;21.13;;
38653;SDS011;24413;52.450;20.706;2022-12-07T11:38:38;24.30;;;16.77;;
38653;SDS011;24413;52.450;20.706;2022-12-07T11:41:08;30.75;;;18.08;;
38653;SDS011;24413;52.450;20.706;2022-12-07T11:46:36;65.88;;;39.90;;
38653;SDS011;24413;52.450;20.706;2022-12-07T11:51:39;60.88;;;37.13;;
38653;SDS011;24413;52.450;20.706;2022-12-07T11:54:14;23.38;;;15.90;;
38653;SDS011;24413;52.450;20.706;2022-12-07T11:56:40;27.50;;;18.70;;
38653;SDS011;24413;52.450;20.706;2022-12-07T11:59:20;26.63;;;18.73;;
38653;SDS011;24413;52.450;20.706;2022-12-07T12:01:52;27.23;;;17.17;;
38653;SDS011;24413;52.450;20.706;2022-12-07T12:04:30;24.52;;;17.85;;
38653;SDS011;24413;52.450;20.706;2022-12-07T12:06:57;28.13;;;19.58;;
38653;SDS011;24413;52.450;20.706;2022-12-07T12:09:31;32.20;;;21.55;;
38653;SDS011;24413;52.450;20.706;2022-12-07T12:22:15;116.50;;;55.67;;
38653;SDS011;24413;52.450;20.706;2022-12-07T12:24:41;59.55;;;34.75;;
38653;SDS011;24413;52.450;20.706;2022-12-07T12:27:09;82.45;;;44.90;;
38653;SDS011;24413;52.450;20.706;2022-12-07T12:45:25;40.83;;;28.05;;
38653;SDS011;24413;52.450;20.706;2022-12-07T12:50:19;77.10;;;44.55;;
38653;SDS011;24413;52.450;20.706;2022-12-07T12:52:48;61.50;;;33.70;;
38653;SDS011;24413;52.450;20.706;2022-12-07T12:55:15;46.88;;;29.23;;
38653;SDS011;24413;52.450;20.706;2022-12-07T12:57:46;36.72;;;23.52;;
38653;SDS011;24413;52.450;20.706;2022-12-07T13:02:58;100.90;;;50.08;;
38653;SDS011;24413;52.450;20.706;2022-12-07T13:05:30;77.97;;;43.40;;
38653;SDS011;24413;52.450;20.706;2022-12-07T13:08:03;70.63;;;39.58;;
38653;SDS011;24413;52.450;20.706;2022-12-07T13:10:34;81.97;;;43.65;;
38653;SDS011;24413;52.450;20.706;2022-12-07T13:15:43;55.22;;;31.02;;
38653;SDS011;24413;52.450;20.706;2022-12-07T13:20:53;40.13;;;25.95;;
38653;SDS011;24413;52.450;20.706;2022-12-07T13:23:20;25.77;;;17.75;;
38653;SDS011;24413;52.450;20.706;2022-12-07T13:28:32;25.65;;;17.35;;
38653;SDS011;24413;52.450;20.706;2022-12-07T13:33:27;42.42;;;24.70;;
38653;SDS011;24413;52.450;20.706;2022-12-07T13:35:55;38.17;;;24.13;;
38653;SDS011;24413;52.450;20.706;2022-12-07T13:38:34;43.70;;;25.65;;
38653;SDS011;24413;52.450;20.706;2022-12-07T13:41:11;45.38;;;27.50;;
38653;SDS011;24413;52.450;20.706;2022-12-07T13:44:11;46.38;;;27.13;;
38653;SDS011;24413;52.450;20.706;2022-12-07T13:46:40;38.35;;;23.40;;
38653;SDS011;24413;52.450;20.706;2022-12-07T13:49:21;44.83;;;25.15;;
38653;SDS011;24413;52.450;20.706;2022-12-07T13:51:47;40.70;;;23.38;;
38653;SDS011;24413;52.450;20.706;2022-12-07T13:54:13;38.53;;;24.10;;
38653;SDS011;24413;52.450;20.706;2022-12-07T13:56:38;29.75;;;18.35;;
38653;SDS011;24413;52.450;20.706;2022-12-07T13:59:13;24.65;;;17.30;;
38653;SDS011;24413;52.450;20.706;2022-12-07T14:01:38;60.58;;;40.45;;
38653;SDS011;24413;52.450;20.706;2022-12-07T14:07:18;53.05;;;35.13;;
38653;SDS011;24413;52.450;20.706;2022-12-07T14:09:52;78.57;;;55.13;;
38653;SDS011;24413;52.450;20.706;2022-12-07T14:12:18;44.47;;;30.23;;
38653;SDS011;24413;52.450;20.706;2022-12-07T14:14:46;38.60;;;26.40;;
38653;SDS011;24413;52.450;20.706;2022-12-07T14:17:16;52.42;;;34.42;;
38653;SDS011;24413;52.450;20.706;2022-12-07T14:19:46;39.70;;;28.33;;
38653;SDS011;24413;52.450;20.706;2022-12-07T14:24:43;261.35;;;132.38;;
38653;SDS011;24413;52.450;20.706;2022-12-07T14:27:22;209.30;;;116.63;;
38653;SDS011;24413;52.450;20.706;2022-12-07T14:29:47;241.48;;;146.73;;
38653;SDS011;24413;52.450;20.706;2022-12-07T14:32:23;100.88;;;70.80;;
38653;SDS011;24413;52.450;20.706;2022-12-07T14:35:26;116.65;;;83.85;;
38653;SDS011;24413;52.450;20.706;2022-12-07T14:37:45;64.13;;;42.05;;
38653;SDS011;24413;52.450;20.706;2022-12-07T14:40:17;61.08;;;37.63;;
38653;SDS011;24413;52.450;20.706;2022-12-07T14:42:43;70.40;;;39.85;;
38653;SDS011;24413;52.450;20.706;2022-12-07T14:45:17;75.00;;;44.55;;
38653;SDS011;24413;52.450;20.706;2022-12-07T14:47:42;65.25;;;39.00;;
38653;SDS011;24413;52.450;20.706;2022-12-07T14:50:08;66.53;;;39.67;;
38653;SDS011;24413;52.450;20.706;2022-12-07T14:52:33;53.90;;;33.08;;
38653;SDS011;24413;52.450;20.706;2022-12-07T14:54:58;66.25;;;37.42;;
38653;SDS011;24413;52.450;20.706;2022-12-07T14:57:23;60.35;;;36.42;;
38653;SDS011;24413;52.450;20.706;2022-12-07T14:59:49;79.85;;;44.08;;
38653;SDS011;24413;52.450;20.706;2022-12-07T15:02:15;76.03;;;43.58;;
38653;SDS011;24413;52.450;20.706;2022-12-07T15:04:41;60.85;;;36.83;;
38653;SDS011;24413;52.450;20.706;2022-12-07T15:07:09;76.30;;;45.90;;
38653;SDS011;24413;52.450;20.706;2022-12-07T15:09:35;75.90;;;45.08;;
38653;SDS011;24413;52.450;20.706;2022-12-07T15:12:00;80.93;;;44.43;;
38653;SDS011;24413;52.450;20.706;2022-12-07T15:14:26;96.88;;;61.38;;
38653;SDS011;24413;52.450;20.706;2022-12-07T15:16:51;88.72;;;49.05;;
38653;SDS011;24413;52.450;20.706;2022-12-07T15:19:17;89.80;;;51.85;;
38653;SDS011;24413;52.450;20.706;2022-12-07T15:21:43;72.30;;;41.40;;
38653;SDS011;24413;52.450;20.706;2022-12-07T15:24:09;77.28;;;45.72;;
38653;SDS011;24413;52.450;20.706;2022-12-07T15:26:35;97.55;;;54.35;;
38653;SDS011;24413;52.450;20.706;2022-12-07T15:29:00;101.50;;;53.17;;
38653;SDS011;24413;52.450;20.706;2022-12-07T15:31:25;90.22;;;50.72;;
38653;SDS011;24413;52.450;20.706;2022-12-07T15:33:51;87.93;;;50.17;;
38653;SDS011;24413;52.450;20.706;2022-12-07T15:36:20;83.53;;;46.80;;
38653;SDS011;24413;52.450;20.706;2022-12-07T15:38:46;53.33;;;33.17;;
38653;SDS011;24413;52.450;20.706;2022-12-07T15:41:11;55.70;;;34.42;;
38653;SDS011;24413;52.450;20.706;2022-12-07T15:43:36;58.15;;;37.63;;
38653;SDS011;24413;52.450;20.706;2022-12-07T15:46:20;67.35;;;41.78;;
38653;SDS011;24413;52.450;20.706;2022-12-07T15:48:45;56.65;;;36.90;;
38653;SDS011;24413;52.450;20.706;2022-12-07T15:51:11;58.05;;;39.05;;
38653;SDS011;24413;52.450;20.706;2022-12-07T15:53:36;73.80;;;42.83;;
38653;SDS011;24413;52.450;20.706;2022-12-07T15:56:01;102.35;;;53.10;;
38653;SDS011;24413;52.450;20.706;2022-12-07T15:58:30;104.70;;;60.88;;
38653;SDS011;24413;52.450;20.706;2022-12-07T16:00:55;77.68;;;45.97;;
38653;SDS011;24413;52.450;20.706;2022-12-07T16:03:21;60.80;;;35.30;;
38653;SDS011;24413;52.450;20.706;2022-12-07T16:05:49;51.95;;;31.00;;
38653;SDS011;24413;52.450;20.706;2022-12-07T16:08:15;54.22;;;36.22;;
38653;SDS011;24413;52.450;20.706;2022-12-07T16:10:40;60.60;;;36.50;;
38653;SDS011;24413;52.450;20.706;2022-12-07T16:13:08;59.03;;;38.17;;
38653;SDS011;24413;52.450;20.706;2022-12-07T16:15:37;66.50;;;41.50;;